createdAt,value
2018-07-05T00:00:41.392Z,85.83
2018-07-05T00:03:26.566Z,85.84
2018-07-05T00:06:12.027Z,86.85
2018-07-05T00:08:57.269Z,85.35
2018-07-05T00:11:42.735Z,85.10
2018-07-05T00:14:27.940Z,84.69
2018-07-05T00:17:13.266Z,86.65
2018-07-05T00:19:58.389Z,86.83
2018-07-05T00:22:43.796Z,87.37
2018-07-05T00:25:29.140Z,87.37
2018-07-05T00:28:14.463Z,87.36
2018-07-05T00:30:59.850Z,87.49
2018-07-05T00:33:45.187Z,86.50
2018-07-05T00:36:30.818Z,87.64
2018-07-05T00:39:16.243Z,87.45
2018-07-05T00:42:01.406Z,87.77
2018-07-05T00:44:46.649Z,87.81
2018-07-05T00:47:31.889Z,87.29
2018-07-05T00:50:16.899Z,87.53
2018-07-05T00:53:02.209Z,87.88
2018-07-05T00:55:47.641Z,88.19
2018-07-05T00:58:33.119Z,89.28
2018-07-05T01:01:19.253Z,87.23
2018-07-05T01:04:04.530Z,85.92
2018-07-05T01:06:49.702Z,86.24
2018-07-05T01:09:35.058Z,85.72
2018-07-05T01:12:20.417Z,87.27
2018-07-05T01:15:05.654Z,86.20
2018-07-05T01:17:50.703Z,85.88
2018-07-05T01:20:35.850Z,86.53
2018-07-05T01:23:21.742Z,86.20
2018-07-05T01:26:06.969Z,87.21
2018-07-05T01:28:46.470Z,87.70
2018-07-05T01:31:31.861Z,87.83
2018-07-05T01:34:17.202Z,87.52
2018-07-05T01:37:02.529Z,87.71
2018-07-05T01:39:47.883Z,87.99
2018-07-05T01:42:33.146Z,88.14
2018-07-05T01:45:18.356Z,86.82
2018-07-05T01:48:03.711Z,87.58
2018-07-05T01:50:48.893Z,87.26
2018-07-05T01:53:34.327Z,88.30
2018-07-05T01:56:19.588Z,88.07
2018-07-05T01:59:04.945Z,89.04
2018-07-05T02:01:50.392Z,89.59
2018-07-05T02:04:35.772Z,89.22
2018-07-05T02:07:21.113Z,88.88
2018-07-05T02:10:06.345Z,88.84
2018-07-05T02:12:51.656Z,87.95
2018-07-05T02:15:36.759Z,88.84
2018-07-05T02:18:22.025Z,89.48
2018-07-05T02:21:07.306Z,89.20
2018-07-05T02:23:52.790Z,89.43
2018-07-05T02:26:37.992Z,89.18
2018-07-05T02:29:23.201Z,88.89
2018-07-05T02:32:08.212Z,90.44
2018-07-05T02:34:53.477Z,90.80
2018-07-05T02:37:44.428Z,90.98
2018-07-05T02:40:29.663Z,90.72
2018-07-05T02:43:14.942Z,90.87
2018-07-05T02:46:00.230Z,90.61
2018-07-05T02:48:45.671Z,90.11
2018-07-05T02:51:30.952Z,89.44
2018-07-05T02:54:16.731Z,88.89
2018-07-05T02:57:01.991Z,89.33
2018-07-05T02:59:47.154Z,89.00
2018-07-05T03:02:32.359Z,89.73
2018-07-05T03:05:17.761Z,90.52
2018-07-05T03:08:03.037Z,91.65
2018-07-05T03:10:48.283Z,91.54
2018-07-05T03:13:33.581Z,90.77
2018-07-05T03:16:18.910Z,90.70
2018-07-05T03:19:04.494Z,90.91
2018-07-05T03:21:50.014Z,91.04
2018-07-05T03:24:35.328Z,91.77
2018-07-05T03:27:20.538Z,91.25
2018-07-05T03:30:06.035Z,91.71
2018-07-05T03:32:51.304Z,91.36
2018-07-05T03:35:36.614Z,90.74
2018-07-05T03:38:21.968Z,89.51
2018-07-05T03:41:07.551Z,90.72
2018-07-05T03:43:52.858Z,90.48
2018-07-05T03:46:38.075Z,89.34
2018-07-05T03:49:23.531Z,90.50
2018-07-05T03:52:08.744Z,90.11
2018-07-05T03:54:54.055Z,91.75
2018-07-05T03:57:39.291Z,90.94
2018-07-05T04:00:24.554Z,90.35
2018-07-05T04:03:09.741Z,90.58
2018-07-05T04:05:55.165Z,88.80
2018-07-05T04:08:40.393Z,88.02
2018-07-05T04:11:25.618Z,88.17
2018-07-05T04:14:10.784Z,89.19
2018-07-05T04:16:56.160Z,88.67
2018-07-05T04:19:45.945Z,89.78
2018-07-05T04:22:31.306Z,89.39
2018-07-05T04:25:16.516Z,89.63
2018-07-05T04:28:01.535Z,87.29
2018-07-05T04:30:46.834Z,86.44
2018-07-05T04:33:31.838Z,87.70
2018-07-05T04:36:17.373Z,86.99
2018-07-05T04:39:02.808Z,86.74
2018-07-05T04:41:48.038Z,87.09
2018-07-05T04:44:33.352Z,87.51
2018-07-05T04:47:18.703Z,88.37
2018-07-05T04:50:04.077Z,88.95
2018-07-05T04:52:49.175Z,88.88
2018-07-05T04:55:34.516Z,89.10
2018-07-05T04:58:19.617Z,88.57
2018-07-05T05:01:05.002Z,87.97
2018-07-05T05:03:50.249Z,87.04
2018-07-05T05:06:35.509Z,86.42
2018-07-05T05:09:20.812Z,85.66
2018-07-05T05:12:06.155Z,84.08
2018-07-05T05:14:51.364Z,85.32
2018-07-05T05:17:36.679Z,85.46
2018-07-05T05:20:21.848Z,84.48
2018-07-05T05:23:07.113Z,83.94
2018-07-05T05:25:52.430Z,83.24
2018-07-05T05:28:37.513Z,82.30
2018-07-05T05:31:22.813Z,81.04
2018-07-05T05:34:07.971Z,78.81
2018-07-05T05:36:53.333Z,77.87
2018-07-05T05:39:38.616Z,79.55
2018-07-05T05:42:24.062Z,79.63
2018-07-05T05:45:03.496Z,81.67
2018-07-05T05:47:48.763Z,80.87
2018-07-05T05:50:34.088Z,80.05
2018-07-05T05:53:19.137Z,80.49
2018-07-05T05:56:04.479Z,79.04
2018-07-05T05:58:50.051Z,79.45
2018-07-05T06:01:35.089Z,79.97
2018-07-05T06:04:20.296Z,79.46
2018-07-05T06:07:05.382Z,76.59
2018-07-05T06:09:50.497Z,75.42
2018-07-05T06:12:35.697Z,68.93
2018-07-05T06:15:20.939Z,60.72
2018-07-05T06:18:06.178Z,57.67
2018-07-05T06:20:51.421Z,57.85
2018-07-05T06:23:36.627Z,57.69
2018-07-05T06:26:22.255Z,55.56
2018-07-05T06:29:07.401Z,57.22
2018-07-05T06:31:52.784Z,53.54
2018-07-05T06:34:38.039Z,56.79
2018-07-05T06:37:23.382Z,55.38
2018-07-05T06:40:02.925Z,58.76
2018-07-05T06:42:48.573Z,61.01
2018-07-05T06:45:33.946Z,60.58
2018-07-05T06:48:19.249Z,61.10
2018-07-05T06:51:04.489Z,61.99
2018-07-05T06:53:49.522Z,63.24
2018-07-05T06:56:34.754Z,64.24
2018-07-05T06:59:19.796Z,65.63
2018-07-05T07:02:05.074Z,67.49
2018-07-05T07:04:50.521Z,66.51
2018-07-05T07:07:35.989Z,67.46
2018-07-05T07:10:21.272Z,66.27
2018-07-05T07:13:06.524Z,66.56
2018-07-05T07:15:51.958Z,68.13
2018-07-05T07:18:37.305Z,64.63
2018-07-05T07:21:22.369Z,63.70
2018-07-05T07:24:07.688Z,65.04
2018-07-05T07:26:52.866Z,63.78
2018-07-05T07:29:38.265Z,63.44
2018-07-05T07:32:17.820Z,62.66
2018-07-05T07:35:03.206Z,64.27
2018-07-05T07:37:48.599Z,65.09
2018-07-05T07:40:33.934Z,67.16
2018-07-05T07:43:00.490Z,66.97
2018-07-05T07:45:27.239Z,65.27
2018-07-05T07:47:54.226Z,66.02
2018-07-05T07:50:20.789Z,65.89
2018-07-05T07:52:47.253Z,64.94
2018-07-05T07:55:13.803Z,65.34
2018-07-05T07:57:40.346Z,62.87
2018-07-05T08:00:06.898Z,61.86
2018-07-05T08:02:33.417Z,63.47
2018-07-05T08:04:59.917Z,60.53
2018-07-05T08:07:26.473Z,62.13
2018-07-05T08:09:53.045Z,61.22
2018-07-05T08:12:19.585Z,63.15
2018-07-05T08:14:46.116Z,63.71
2018-07-05T08:17:12.642Z,65.69
2018-07-05T08:19:39.160Z,65.24
2018-07-05T08:22:05.670Z,67.20
2018-07-05T08:24:32.197Z,63.88
2018-07-05T08:26:58.747Z,61.46
2018-07-05T08:29:25.318Z,62.60
2018-07-05T08:31:51.794Z,61.18
2018-07-05T08:34:18.322Z,61.14
2018-07-05T08:36:44.901Z,61.77
2018-07-05T08:39:11.730Z,60.86
2018-07-05T08:41:38.198Z,60.55
2018-07-05T08:44:05.156Z,61.88
2018-07-05T08:46:31.647Z,61.84
2018-07-05T08:48:58.165Z,60.65
2018-07-05T08:51:24.683Z,60.49
2018-07-05T08:53:51.242Z,59.43
2018-07-05T08:56:18.023Z,60.60
2018-07-05T08:58:44.565Z,60.05
2018-07-05T09:01:11.560Z,58.42
2018-07-05T09:03:38.067Z,60.29
2018-07-05T09:06:04.571Z,59.35
2018-07-05T09:08:31.080Z,59.36
2018-07-05T09:10:57.565Z,58.06
2018-07-05T09:13:24.062Z,58.30
2018-07-05T09:15:50.582Z,58.80
2018-07-05T09:18:17.149Z,58.21
2018-07-05T09:20:43.622Z,56.87
2018-07-05T09:23:10.235Z,56.97
2018-07-05T09:25:36.670Z,57.67
2018-07-05T09:28:03.490Z,56.25
2018-07-05T09:30:30.009Z,56.95
2018-07-05T09:32:56.630Z,56.18
2018-07-05T09:35:23.117Z,55.77
2018-07-05T09:37:50.152Z,57.71
2018-07-05T09:40:16.643Z,57.09
2018-07-05T09:42:43.178Z,54.93
2018-07-05T09:45:09.685Z,58.23
2018-07-05T09:47:36.195Z,58.88
2018-07-05T09:50:02.693Z,57.28
2018-07-05T09:52:29.280Z,56.67
2018-07-05T09:54:55.681Z,59.40
2018-07-05T09:57:22.280Z,62.36
2018-07-05T09:59:48.935Z,62.00
2018-07-05T10:02:15.460Z,60.96
2018-07-05T10:04:41.942Z,62.41
2018-07-05T10:07:08.432Z,60.95
2018-07-05T10:09:35.082Z,58.47
2018-07-05T10:12:01.603Z,57.75
2018-07-05T10:14:28.722Z,57.41
2018-07-05T10:16:55.265Z,56.17
2018-07-05T10:19:21.969Z,56.67
2018-07-05T10:21:48.473Z,57.04
2018-07-05T10:24:14.947Z,57.48
2018-07-05T10:26:41.516Z,58.93
2018-07-05T10:29:26.695Z,57.74
2018-07-05T10:32:12.581Z,59.74
2018-07-05T10:34:39.107Z,59.56
2018-07-05T10:37:05.584Z,61.47
2018-07-05T10:39:32.120Z,60.93
2018-07-05T10:42:17.438Z,59.85
2018-07-05T10:45:02.789Z,59.52
2018-07-05T10:47:48.185Z,60.99
2018-07-05T10:50:33.478Z,60.91
2018-07-05T10:53:18.737Z,61.82
2018-07-05T10:56:03.975Z,62.44
2018-07-05T10:58:49.072Z,62.14
2018-07-05T11:01:34.453Z,61.48
2018-07-05T11:04:19.610Z,63.26
2018-07-05T11:07:04.911Z,60.66
2018-07-05T11:09:50.266Z,61.59
2018-07-05T11:12:35.522Z,62.37
2018-07-05T11:15:20.811Z,63.55
2018-07-05T11:18:06.072Z,64.43
2018-07-05T11:20:51.390Z,64.82
2018-07-05T11:23:36.495Z,63.45
2018-07-05T11:26:22.038Z,63.04
2018-07-05T11:29:07.339Z,63.63
2018-07-05T11:31:52.367Z,64.14
2018-07-05T11:34:37.520Z,64.40
2018-07-05T11:37:22.589Z,66.44
2018-07-05T11:40:07.789Z,64.53
2018-07-05T11:42:53.006Z,65.92
2018-07-05T11:45:38.078Z,66.76
2018-07-05T11:48:23.002Z,66.14
2018-07-05T11:51:08.423Z,64.80
2018-07-05T11:53:53.749Z,63.18
2018-07-05T11:56:38.994Z,62.94
2018-07-05T11:59:24.089Z,63.45
2018-07-05T12:02:09.283Z,62.76
2018-07-05T12:04:54.529Z,61.64
2018-07-05T12:07:39.775Z,62.39
2018-07-05T12:10:25.501Z,62.67
2018-07-05T12:13:10.843Z,61.81
2018-07-05T12:15:56.243Z,60.58
2018-07-05T12:18:41.553Z,61.07
2018-07-05T12:21:26.902Z,59.09
2018-07-05T12:24:12.333Z,58.52
2018-07-05T12:26:57.689Z,58.73
2018-07-05T12:29:43.242Z,59.00
2018-07-05T12:32:28.758Z,59.03
2018-07-05T12:35:13.814Z,58.03
2018-07-05T12:37:59.278Z,58.52
2018-07-05T12:40:44.552Z,60.18
2018-07-05T12:43:24.141Z,60.89
2018-07-05T12:46:09.484Z,60.58
2018-07-05T12:48:54.861Z,59.99
2018-07-05T12:51:39.986Z,60.26
2018-07-05T12:54:25.310Z,58.88
2018-07-05T12:57:10.760Z,59.75
2018-07-05T12:59:55.958Z,59.25
2018-07-05T13:02:41.185Z,58.84
2018-07-05T13:05:26.313Z,59.55
2018-07-05T13:08:11.763Z,59.45
2018-07-05T13:10:57.682Z,61.24
2018-07-05T13:13:43.054Z,59.79
2018-07-05T13:16:28.375Z,59.90
2018-07-05T13:19:13.614Z,60.63
2018-07-05T13:21:59.209Z,60.56
2018-07-05T13:24:44.462Z,61.00
2018-07-05T13:27:29.786Z,60.27
2018-07-05T13:30:15.016Z,60.96
2018-07-05T13:33:00.493Z,61.20
2018-07-05T13:35:45.706Z,61.40
2018-07-05T13:38:31.026Z,61.08
2018-07-05T13:41:16.374Z,62.27
2018-07-05T13:44:01.881Z,60.91
2018-07-05T13:46:47.207Z,60.31
2018-07-05T13:49:32.428Z,60.84
2018-07-05T13:52:17.655Z,61.23
2018-07-05T13:55:03.177Z,61.98
2018-07-05T13:57:48.243Z,62.82
2018-07-05T14:00:33.477Z,61.50
2018-07-05T14:03:18.887Z,62.38
2018-07-05T14:06:04.085Z,62.19
2018-07-05T14:08:49.270Z,61.37
2018-07-05T14:11:34.226Z,62.20
2018-07-05T14:14:19.472Z,61.86
2018-07-05T14:17:04.463Z,61.92
2018-07-05T14:19:49.789Z,61.68
2018-07-05T14:22:35.110Z,62.52
2018-07-05T14:25:20.131Z,61.19
2018-07-05T14:28:05.561Z,62.75
2018-07-05T14:30:50.902Z,62.77
2018-07-05T14:33:36.413Z,62.64
2018-07-05T14:36:21.749Z,63.52
2018-07-05T14:39:06.881Z,63.16
2018-07-05T14:41:51.983Z,63.31
2018-07-05T14:44:37.845Z,63.47
2018-07-05T14:47:23.012Z,64.34
2018-07-05T14:50:08.443Z,64.24
2018-07-05T14:52:53.748Z,63.97
2018-07-05T14:55:39.056Z,63.91
2018-07-05T14:58:24.139Z,64.55
2018-07-05T15:01:09.431Z,64.12
2018-07-05T15:03:54.855Z,64.51
2018-07-05T15:06:40.209Z,64.07
2018-07-05T15:09:25.536Z,66.37
2018-07-05T15:12:10.661Z,65.91
2018-07-05T15:14:56.209Z,66.30
2018-07-05T15:17:41.683Z,65.72
2018-07-05T15:20:26.955Z,67.26
2018-07-05T15:23:12.344Z,66.08
2018-07-05T15:25:57.773Z,65.94
2018-07-05T15:28:43.185Z,66.22
2018-07-05T15:31:28.362Z,67.11
2018-07-05T15:34:13.758Z,68.12
2018-07-05T15:36:59.110Z,67.49
2018-07-05T15:39:44.317Z,67.19
2018-07-05T15:42:29.762Z,67.15
2018-07-05T15:45:15.074Z,68.22
2018-07-05T15:48:00.234Z,68.00
2018-07-05T15:50:45.529Z,67.87
2018-07-05T15:53:31.026Z,68.27
2018-07-05T15:56:11.076Z,68.30
2018-07-05T15:59:00.502Z,68.66
2018-07-05T16:01:47.361Z,68.99
2018-07-05T16:04:33.356Z,67.15
2018-07-05T16:07:18.913Z,68.04
2018-07-05T16:10:04.509Z,68.84
2018-07-05T16:12:49.911Z,68.96
2018-07-05T16:15:35.278Z,68.21
2018-07-05T16:18:20.881Z,69.00
2018-07-05T16:21:06.043Z,68.27
2018-07-05T16:23:51.412Z,67.48
2018-07-05T16:26:37.147Z,67.66
2018-07-05T16:29:23.381Z,68.28
2018-07-05T16:32:08.648Z,69.15
2018-07-05T16:34:53.984Z,68.29
2018-07-05T16:37:39.332Z,69.41
2018-07-05T16:40:24.517Z,69.16
2018-07-05T16:43:10.047Z,68.64
2018-07-05T16:45:55.355Z,69.35
2018-07-05T16:48:40.694Z,68.62
2018-07-05T16:51:25.896Z,68.66
2018-07-05T16:54:11.234Z,69.08
2018-07-05T16:56:56.463Z,68.81
2018-07-05T16:59:41.834Z,69.28
2018-07-05T17:02:27.199Z,68.30
2018-07-05T17:05:12.434Z,68.35
2018-07-05T17:07:57.846Z,68.41
2018-07-05T17:10:43.144Z,69.63
2018-07-05T17:13:28.576Z,69.29
2018-07-05T17:16:07.753Z,69.53
2018-07-05T17:18:53.017Z,69.84
2018-07-05T17:21:38.104Z,70.20
2018-07-05T17:24:23.430Z,70.15
2018-07-05T17:27:08.408Z,70.68
2018-07-05T17:29:53.720Z,70.16
2018-07-05T17:32:38.661Z,70.44
2018-07-05T17:35:24.197Z,70.82
2018-07-05T17:38:09.362Z,70.66
2018-07-05T17:40:54.630Z,70.82
2018-07-05T17:43:40.071Z,68.99
2018-07-05T17:46:25.089Z,70.16
2018-07-05T17:49:10.195Z,70.40
2018-07-05T17:51:55.483Z,70.20
2018-07-05T17:54:40.784Z,70.25
2018-07-05T17:57:25.986Z,71.42
2018-07-05T18:00:11.299Z,70.90
2018-07-05T18:02:56.482Z,70.72
2018-07-05T18:05:41.872Z,71.29
2018-07-05T18:08:27.186Z,71.10
2018-07-05T18:11:12.648Z,71.38
2018-07-05T18:13:57.963Z,71.00
2018-07-05T18:16:43.334Z,71.86
2018-07-05T18:19:28.414Z,70.94
2018-07-05T18:22:13.697Z,72.22
2018-07-05T18:24:58.714Z,73.66
2018-07-05T18:27:44.136Z,74.01
2018-07-05T18:30:29.474Z,73.25
2018-07-05T18:33:14.740Z,72.87
2018-07-05T18:36:00.074Z,72.07
2018-07-05T18:38:45.441Z,72.38
2018-07-05T18:41:30.722Z,72.42
2018-07-05T18:44:16.421Z,73.48
2018-07-05T18:47:01.935Z,72.85
2018-07-05T18:49:47.109Z,72.77
2018-07-05T18:52:32.417Z,73.03
2018-07-05T18:55:17.586Z,72.71
2018-07-05T18:57:57.113Z,73.25
2018-07-05T19:00:42.458Z,73.08
2018-07-05T19:03:27.445Z,73.54
2018-07-05T19:06:12.645Z,75.02
2018-07-05T19:08:57.797Z,75.14
2018-07-05T19:11:43.334Z,76.46
2018-07-05T19:14:28.625Z,77.20
2018-07-05T19:17:13.902Z,76.29
2018-07-05T19:19:59.357Z,76.74
2018-07-05T19:22:44.604Z,76.95
2018-07-05T19:25:29.761Z,76.77
2018-07-05T19:28:15.013Z,76.37
2018-07-05T19:31:00.337Z,76.95
2018-07-05T19:33:45.617Z,77.61
2018-07-05T19:36:31.030Z,78.07
2018-07-05T19:39:16.067Z,78.20
2018-07-05T19:42:01.820Z,77.25
2018-07-05T19:44:47.214Z,77.63
2018-07-05T19:47:32.515Z,77.44
2018-07-05T19:50:17.854Z,77.95
2018-07-05T19:53:03.223Z,78.33
2018-07-05T19:55:48.586Z,79.46
2018-07-05T19:58:33.928Z,79.62
2018-07-05T20:01:13.456Z,80.65
2018-07-05T20:03:59.012Z,82.63
2018-07-05T20:06:44.535Z,82.82
2018-07-05T20:09:29.512Z,82.50
2018-07-05T20:12:14.821Z,83.88
2018-07-05T20:15:00.170Z,82.49
2018-07-05T20:17:45.543Z,83.17
2018-07-05T20:20:30.654Z,84.67
2018-07-05T20:23:15.789Z,84.69
2018-07-05T20:26:01.220Z,84.65
2018-07-05T20:28:46.703Z,84.95
2018-07-05T20:31:32.004Z,84.67
2018-07-05T20:34:17.499Z,84.97
2018-07-05T20:37:02.734Z,85.36
2018-07-05T20:39:42.093Z,84.84
2018-07-05T20:42:27.708Z,85.09
2018-07-05T20:45:13.257Z,86.11
2018-07-05T20:47:58.482Z,85.34
2018-07-05T20:50:43.826Z,85.83
2018-07-05T20:53:29.020Z,85.06
2018-07-05T20:56:14.128Z,84.13
2018-07-05T20:58:59.543Z,84.83
2018-07-05T21:01:44.971Z,84.74
2018-07-05T21:04:30.221Z,84.92
2018-07-05T21:07:15.415Z,85.01
2018-07-05T21:10:00.691Z,86.08
2018-07-05T21:12:45.913Z,86.23
2018-07-05T21:15:31.435Z,86.40
2018-07-05T21:18:16.662Z,86.80
2018-07-05T21:21:01.612Z,86.35
2018-07-05T21:23:47.149Z,86.52
2018-07-05T21:26:32.470Z,87.68
2018-07-05T21:29:17.997Z,86.58
2018-07-05T21:32:03.780Z,87.52
2018-07-05T21:34:49.057Z,86.83
2018-07-05T21:37:34.455Z,87.78
2018-07-05T21:40:19.443Z,87.49
2018-07-05T21:43:05.274Z,87.19
2018-07-05T21:45:50.601Z,87.62
2018-07-05T21:48:35.967Z,87.72
2018-07-05T21:51:21.274Z,87.27
2018-07-05T21:54:07.114Z,88.05
2018-07-05T21:56:52.273Z,88.41
2018-07-05T21:59:37.983Z,89.71
2018-07-05T22:02:23.213Z,87.83
2018-07-05T22:05:11.530Z,89.26
2018-07-05T22:07:56.895Z,87.36
2018-07-05T22:10:42.371Z,88.78
2018-07-05T22:13:27.902Z,89.08
2018-07-05T22:16:13.178Z,88.29
2018-07-05T22:19:04.401Z,87.71
2018-07-05T22:21:55.657Z,88.34
2018-07-05T22:24:46.723Z,88.23
2018-07-05T22:27:31.847Z,88.07
2018-07-05T22:30:22.858Z,87.97
2018-07-05T22:33:08.832Z,88.49
2018-07-05T22:35:54.119Z,88.68
2018-07-05T22:38:39.533Z,88.87
2018-07-05T22:41:24.572Z,88.45
2018-07-05T22:44:10.561Z,88.43
2018-07-05T22:46:55.822Z,88.19
2018-07-05T22:49:41.106Z,88.37
2018-07-05T22:52:26.437Z,88.78
2018-07-05T22:55:11.771Z,89.60
2018-07-05T22:57:57.047Z,89.64
2018-07-05T23:00:42.464Z,88.49
2018-07-05T23:03:27.659Z,89.50
2018-07-05T23:06:12.918Z,89.08
2018-07-05T23:08:58.154Z,88.59
2018-07-05T23:11:43.266Z,90.35
2018-07-05T23:14:28.578Z,89.28
2018-07-05T23:17:13.880Z,89.58
2018-07-05T23:19:59.178Z,89.45
2018-07-05T23:22:44.356Z,89.17
2018-07-05T23:25:29.625Z,89.75
2018-07-05T23:28:14.729Z,90.24
2018-07-05T23:31:00.089Z,90.06
2018-07-05T23:33:45.499Z,89.06
2018-07-05T23:36:30.566Z,90.54
2018-07-05T23:39:15.930Z,89.39
2018-07-05T23:42:01.237Z,90.90
2018-07-05T23:44:46.256Z,90.16
2018-07-05T23:47:31.558Z,90.22
2018-07-05T23:50:16.885Z,90.79
2018-07-05T23:53:01.967Z,90.65
2018-07-05T23:55:47.192Z,91.08
2018-07-05T23:58:32.443Z,91.13
